Time;durP1;ratioP1;P1;durP2;ratioP2;P2;SDS_P1;SDS_P2;PMS_P1;PMS_P2;Temp;Humidity;BMP_temperature;BMP_pressure;BME280_temperature;BME280_humidity;BME280_pressure;Samples;Min_cycle;Max_cycle;Signal;HPM_P1;HPM_P2
2024/04/13 00:01:22;;;;;;;;;;;;;;;18.67;55.00;95485.22;4524018;26;20004;-59
2024/04/13 00:03:24;;;;;;;;;;;;;;;18.70;54.78;95493.63;4532347;26;19928;-59
2024/04/13 00:05:27;;;;;;;;;;;;;;;18.71;54.87;95484.63;4536211;26;20235;-60
2024/04/13 00:07:28;;;;;;;;;;;;;;;18.70;54.75;95488.31;4524601;26;19936;-59
2024/04/13 00:09:30;;;;;;;;;;;;;;;18.68;54.88;95487.69;4534160;26;19932;-61
2024/04/13 00:11:32;;;;;;;;;;;;;;;18.62;55.18;95486.59;4529167;26;19945;-60
2024/04/13 00:13:37;;;;;;;;;;;;;;;18.55;55.17;95479.59;4530515;26;19978;-60
2024/04/13 00:15:39;;;;;;;;;;;;;;;18.49;55.58;95477.69;4532134;26;19936;-58
2024/04/13 00:17:42;;;;;;;;;;;;;;;18.48;55.55;95473.41;4529258;26;19935;-59
2024/04/13 00:19:49;;;;;;;;;;;;;;;18.50;55.55;95474.03;4534741;26;20366;-57
2024/04/13 00:21:51;;;;;;;;;;;;;;;18.49;55.39;95475.03;4532820;26;19928;-61
2024/04/13 00:23:53;;;;;;;;;;;;;;;18.46;55.94;95470.13;4534757;26;19934;-61
2024/04/13 00:25:57;;;;;;;;;;;;;;;18.45;56.09;95474.59;4532641;26;19928;-60
2024/04/13 00:27:58;;;;;;;;;;;;;;;18.44;56.15;95470.31;4521707;26;19929;-60
2024/04/13 00:30:00;;;;;;;;;;;;;;;18.39;55.89;95462.09;4529490;26;20055;-61
2024/04/13 00:32:03;;;;;;;;;;;;;;;18.38;55.93;95466.56;4532906;26;19999;-60
2024/04/13 00:34:05;;;;;;;;;;;;;;;18.40;56.26;95467.22;4533283;26;19997;-58
2024/04/13 00:36:09;;;;;;;;;;;;;;;18.39;56.02;95478.00;4534681;26;19940;-60
2024/04/13 00:38:14;;;;;;;;;;;;;;;18.45;56.21;95468.47;4547272;26;19998;-60
2024/04/13 00:40:16;;;;;;;;;;;;;;;18.47;56.29;95472.56;4529754;26;20001;-59
2024/04/13 00:42:19;;;;;;;;;;;;;;;18.49;56.30;95475.88;4517848;26;20007;-60
2024/04/13 00:44:22;;;;;;;;;;;;;;;18.52;56.02;95472.00;4535373;26;20371;-59
2024/04/13 00:46:24;;;;;;;;;;;;;;;18.55;56.23;95476.94;4520888;26;19996;-59
2024/04/13 00:48:30;;;;;;;;;;;;;;;18.56;55.91;95467.97;4521363;26;19987;-59
2024/04/13 00:50:32;;;;;;;;;;;;;;;18.51;56.16;95473.84;4530553;26;19932;-66
2024/04/13 00:52:34;;;;;;;;;;;;;;;18.51;56.12;95470.38;4515324;26;20386;-61
2024/04/13 00:54:36;;;;;;;;;;;;;;;18.48;56.21;95473.41;4532172;26;19987;-58
2024/04/13 00:56:40;;;;;;;;;;;;;;;18.44;56.37;95474.81;4522818;26;20353;-59
2024/04/13 00:58:42;;;;;;;;;;;;;;;18.24;56.05;95480.72;4518522;26;20351;-60
2024/04/13 01:00:44;;;;;;;;;;;;;;;18.04;56.76;95472.53;4532832;26;19939;-60
2024/04/13 01:02:46;;;;;;;;;;;;;;;17.80;57.49;95478.94;4515524;26;19969;-60
2024/04/13 01:04:48;;;;;;;;;;;;;;;17.58;58.26;95484.16;4517459;26;19943;-60
2024/04/13 01:06:50;;;;;;;;;;;;;;;17.55;58.01;95476.59;4528903;26;20746;-59
2024/04/13 01:08:52;;;;;;;;;;;;;;;17.51;58.09;95483.25;4518015;26;20256;-61
2024/04/13 01:10:54;;;;;;;;;;;;;;;17.36;58.62;95471.84;4517335;26;19935;-60
2024/04/13 01:12:56;;;;;;;;;;;;;;;17.23;59.09;95477.78;4527325;26;19940;-61
2024/04/13 01:15:00;;;;;;;;;;;;;;;17.18;59.47;95473.00;4524863;26;19928;-60
2024/04/13 01:17:02;;;;;;;;;;;;;;;17.07;59.88;95478.72;4529885;26;20608;-60
2024/04/13 01:19:07;;;;;;;;;;;;;;;16.94;59.88;95479.34;4544777;26;19935;-60
2024/04/13 01:21:09;;;;;;;;;;;;;;;16.67;61.01;95471.94;4538883;26;19947;-61
2024/04/13 01:23:14;;;;;;;;;;;;;;;16.67;60.80;95475.44;4530918;26;19928;-59
2024/04/13 01:25:16;;;;;;;;;;;;;;;16.84;60.88;95468.19;4529791;26;19928;-59
2024/04/13 01:27:18;;;;;;;;;;;;;;;17.04;59.88;95468.53;4518811;26;19970;-60
2024/04/13 01:29:19;;;;;;;;;;;;;;;17.16;59.50;95472.38;4513605;26;19928;-61
2024/04/13 01:31:21;;;;;;;;;;;;;;;17.10;60.16;95470.44;4520485;26;19951;-61
2024/04/13 01:33:23;;;;;;;;;;;;;;;17.17;59.69;95471.34;4520153;26;20309;-59
2024/04/13 01:35:25;;;;;;;;;;;;;;;17.25;59.98;95472.28;4529375;26;20481;-60
2024/04/13 01:37:27;;;;;;;;;;;;;;;17.25;59.67;95475.75;4532817;26;19999;-58
2024/04/13 01:39:29;;;;;;;;;;;;;;;17.08;60.38;95468.97;4523345;26;19936;-60
2024/04/13 01:41:31;;;;;;;;;;;;;;;16.93;60.91;95475.06;4533562;26;19939;-60
2024/04/13 01:43:33;;;;;;;;;;;;;;;16.79;61.18;95471.34;4531421;26;19964;-62
2024/04/13 01:45:35;;;;;;;;;;;;;;;16.74;61.27;95475.53;4510673;26;19932;-59
2024/04/13 01:47:37;;;;;;;;;;;;;;;16.74;61.17;95468.41;4533174;26;20296;-59
2024/04/13 01:49:39;;;;;;;;;;;;;;;16.89;60.84;95465.03;4532829;26;19935;-60
2024/04/13 01:51:41;;;;;;;;;;;;;;;17.02;60.99;95461.78;4530959;26;20288;-59
2024/04/13 01:53:43;;;;;;;;;;;;;;;17.05;60.81;95462.22;4533398;26;19928;-59
2024/04/13 01:55:46;;;;;;;;;;;;;;;17.09;60.81;95465.31;4525893;26;20031;-58
2024/04/13 01:57:48;;;;;;;;;;;;;;;17.12;60.54;95459.66;4533426;26;20004;-61
2024/04/13 01:59:50;;;;;;;;;;;;;;;16.97;60.36;95457.00;4527136;26;19972;-59
2024/04/13 02:01:51;;;;;;;;;;;;;;;16.90;60.86;95462.19;4528753;26;19967;-60
2024/04/13 02:03:53;;;;;;;;;;;;;;;16.72;61.50;95453.72;4528379;26;19929;-60
2024/04/13 02:06:00;;;;;;;;;;;;;;;16.67;61.84;95456.06;4529349;26;19939;-60
2024/04/13 02:08:03;;;;;;;;;;;;;;;16.72;61.22;95451.91;4530465;26;19928;-61
2024/04/13 02:10:06;;;;;;;;;;;;;;;16.83;60.92;95455.16;4517459;26;19940;-60
2024/04/13 02:12:10;;;;;;;;;;;;;;;16.94;60.61;95462.66;4528032;26;19928;-61
2024/04/13 02:14:12;;;;;;;;;;;;;;;17.01;60.33;95455.63;4517782;26;19951;-60
2024/04/13 02:16:14;;;;;;;;;;;;;;;17.10;60.52;95451.91;4530353;26;20311;-59
2024/04/13 02:18:17;;;;;;;;;;;;;;;17.08;59.73;95453.91;4530971;26;19947;-58
2024/04/13 02:20:19;;;;;;;;;;;;;;;16.69;60.65;95449.63;4527463;26;19928;-60
2024/04/13 02:22:21;;;;;;;;;;;;;;;16.72;61.49;95453.72;4532106;26;19969;-59
2024/04/13 02:24:24;;;;;;;;;;;;;;;16.84;61.43;95449.66;4529910;26;20091;-59
2024/04/13 02:26:28;;;;;;;;;;;;;;;16.97;60.72;95446.41;4536816;26;20008;-59
2024/04/13 02:28:30;;;;;;;;;;;;;;;17.07;60.57;95449.63;4531348;26;19952;-57
2024/04/13 02:30:31;;;;;;;;;;;;;;;17.15;60.26;95452.19;4520982;26;20221;-60
2024/04/13 02:32:33;;;;;;;;;;;;;;;17.20;60.10;95454.28;4532166;26;20286;-60
2024/04/13 02:34:35;;;;;;;;;;;;;;;17.08;59.82;95445.97;4531555;26;19943;-59
2024/04/13 02:36:38;;;;;;;;;;;;;;;16.88;60.27;95450.13;4523404;26;19952;-61
2024/04/13 02:38:41;;;;;;;;;;;;;;;16.60;61.39;95440.09;4544681;26;19928;-60
2024/04/13 02:40:43;;;;;;;;;;;;;;;16.64;61.21;95448.50;4526069;26;19939;-60
2024/04/13 02:42:45;;;;;;;;;;;;;;;16.71;61.55;95439.69;4520189;26;19932;-61
2024/04/13 02:44:47;;;;;;;;;;;;;;;16.82;60.94;95449.03;4521660;26;19932;-60
2024/04/13 02:46:49;;;;;;;;;;;;;;;16.87;60.45;95444.03;4528837;26;19956;-59
2024/04/13 02:48:51;;;;;;;;;;;;;;;16.85;60.51;95447.84;4531535;26;19964;-60
2024/04/13 02:50:55;;;;;;;;;;;;;;;16.89;60.98;95447.31;4532090;26;19935;-59
2024/04/13 02:52:57;;;;;;;;;;;;;;;16.89;61.08;95449.97;4541092;26;19939;-58
2024/04/13 02:55:00;;;;;;;;;;;;;;;16.95;60.49;95454.53;4537085;26;19977;-58
2024/04/13 02:57:02;;;;;;;;;;;;;;;17.00;60.83;95448.69;4530603;26;19928;-60
2024/04/13 02:59:04;;;;;;;;;;;;;;;16.96;60.81;95458.81;4530185;26;20009;-59
2024/04/13 03:01:06;;;;;;;;;;;;;;;16.58;61.24;95464.09;4524270;26;19936;-58
2024/04/13 03:03:08;;;;;;;;;;;;;;;16.32;62.22;95459.13;4526572;26;19940;-59
2024/04/13 03:05:10;;;;;;;;;;;;;;;16.29;62.33;95461.31;4532443;26;19928;-59
2024/04/13 03:07:12;;;;;;;;;;;;;;;16.17;62.63;95466.19;4519416;26;19968;-60
2024/04/13 03:09:14;;;;;;;;;;;;;;;16.13;63.15;95463.09;4530834;26;19936;-59
2024/04/13 03:11:17;;;;;;;;;;;;;;;16.18;63.37;95466.00;4519893;26;20491;-60
2024/04/13 03:13:19;;;;;;;;;;;;;;;16.27;62.81;95461.50;4526474;26;19936;-60
2024/04/13 03:15:21;;;;;;;;;;;;;;;16.27;63.23;95461.50;4532281;26;20264;-59
2024/04/13 03:17:22;;;;;;;;;;;;;;;16.30;62.90;95457.66;4521606;26;19927;-60
2024/04/13 03:19:24;;;;;;;;;;;;;;;16.34;62.45;95466.91;4532928;26;20386;-61
2024/04/13 03:21:29;;;;;;;;;;;;;;;16.22;62.74;95461.22;4530907;26;19942;-60
2024/04/13 03:23:31;;;;;;;;;;;;;;;15.94;64.10;95466.97;4529259;26;19935;-61
2024/04/13 03:25:33;;;;;;;;;;;;;;;15.84;64.17;95462.91;4532535;26;19961;-60
2024/04/13 03:27:35;;;;;;;;;;;;;;;15.79;64.90;95465.22;4531287;26;20671;-59
2024/04/13 03:29:37;;;;;;;;;;;;;;;15.65;65.12;95469.41;4527747;26;20377;-60
2024/04/13 03:31:39;;;;;;;;;;;;;;;15.55;65.51;95462.50;4522906;26;19997;-60
2024/04/13 03:33:42;;;;;;;;;;;;;;;15.69;65.32;95465.41;4529735;26;20407;-61
2024/04/13 03:35:44;;;;;;;;;;;;;;;15.70;64.75;95464.41;4532891;26;19960;-60
2024/04/13 03:37:46;;;;;;;;;;;;;;;15.63;65.26;95459.00;4544106;26;20000;-60
2024/04/13 03:39:48;;;;;;;;;;;;;;;15.51;65.43;95469.13;4541727;26;19929;-60
2024/04/13 03:41:49;;;;;;;;;;;;;;;15.33;66.27;95464.03;4519001;26;19959;-60
2024/04/13 03:43:51;;;;;;;;;;;;;;;15.32;66.33;95472.97;4534167;26;20058;-58
2024/04/13 03:45:53;;;;;;;;;;;;;;;15.19;67.11;95477.16;4534930;26;19928;-61
2024/04/13 03:47:55;;;;;;;;;;;;;;;15.03;67.33;95472.69;4532695;26;19952;-60
2024/04/13 03:49:58;;;;;;;;;;;;;;;14.93;68.00;95471.06;4531168;26;19932;-59
2024/04/13 03:51:59;;;;;;;;;;;;;;;14.64;68.86;95479.50;4524359;26;19970;-60
2024/04/13 03:54:02;;;;;;;;;;;;;;;14.65;68.91;95478.50;4524154;26;19929;-60
2024/04/13 03:56:04;;;;;;;;;;;;;;;14.68;68.74;95486.09;4531016;26;20040;-60
2024/04/13 03:58:05;;;;;;;;;;;;;;;14.93;68.53;95478.19;4520646;26;20488;-60
2024/04/13 04:00:08;;;;;;;;;;;;;;;14.91;68.36;95477.50;4538611;26;19956;-60
2024/04/13 04:02:09;;;;;;;;;;;;;;;15.08;67.74;95486.25;4518475;26;19943;-60
2024/04/13 04:04:11;;;;;;;;;;;;;;;15.00;67.82;95487.06;4521037;26;19934;-62
2024/04/13 04:06:13;;;;;;;;;;;;;;;15.19;67.92;95491.16;4522144;26;20000;-59
2024/04/13 04:08:15;;;;;;;;;;;;;;;15.27;66.84;95496.44;4534108;26;20051;-61
2024/04/13 04:10:17;;;;;;;;;;;;;;;15.29;67.29;95498.88;4517515;26;20365;-61
2024/04/13 04:12:19;;;;;;;;;;;;;;;15.45;66.64;95501.47;4530923;26;19936;-60
2024/04/13 04:14:21;;;;;;;;;;;;;;;15.44;66.08;95509.56;4505487;26;20386;-64
2024/04/13 04:16:22;;;;;;;;;;;;;;;15.21;67.22;95507.66;4510726;26;19989;-60
2024/04/13 04:18:24;;;;;;;;;;;;;;;15.17;67.22;95508.97;4533151;26;19976;-62
2024/04/13 04:20:27;;;;;;;;;;;;;;;15.26;67.18;95510.59;4534462;26;20004;-61
2024/04/13 04:22:28;;;;;;;;;;;;;;;15.36;66.95;95508.59;4534150;26;19935;-62
2024/04/13 04:24:30;;;;;;;;;;;;;;;15.52;66.33;95518.28;4532427;26;20075;-59
2024/04/13 04:26:32;;;;;;;;;;;;;;;15.72;65.80;95521.41;4535670;26;19956;-60
2024/04/13 04:28:34;;;;;;;;;;;;;;;15.88;64.79;95531.09;4530593;26;20129;-60
2024/04/13 04:30:36;;;;;;;;;;;;;;;16.04;64.51;95526.72;4534848;26;20366;-60
2024/04/13 04:32:38;;;;;;;;;;;;;;;16.14;63.99;95524.69;4533195;26;19935;-60
2024/04/13 04:34:39;;;;;;;;;;;;;;;16.25;63.94;95521.66;4535616;26;19992;-62
2024/04/13 04:36:41;;;;;;;;;;;;;;;16.34;63.28;95525.88;4530174;26;20526;-60
2024/04/13 04:38:43;;;;;;;;;;;;;;;16.38;63.03;95521.91;4535252;26;20108;-59
2024/04/13 04:40:45;;;;;;;;;;;;;;;16.47;62.96;95529.78;4519567;26;20214;-60
2024/04/13 04:42:47;;;;;;;;;;;;;;;16.52;63.33;95522.13;4532534;26;20351;-60
2024/04/13 04:44:48;;;;;;;;;;;;;;;16.58;63.13;95517.00;4518939;26;20227;-63
2024/04/13 04:46:50;;;;;;;;;;;;;;;16.62;62.85;95522.72;4528052;26;20000;-60
2024/04/13 04:48:53;;;;;;;;;;;;;;;16.59;62.84;95521.28;4512782;26;20358;-58
2024/04/13 04:50:58;;;;;;;;;;;;;;;16.67;63.02;95520.41;4535202;26;20039;-63
2024/04/13 04:53:02;;;;;;;;;;;;;;;16.75;63.00;95525.59;4535562;26;20356;-60
2024/04/13 04:55:05;;;;;;;;;;;;;;;16.82;63.20;95514.34;4532198;26;20254;-61
2024/04/13 04:57:06;;;;;;;;;;;;;;;16.92;62.35;95518.41;4530394;26;19936;-60
2024/04/13 04:59:08;;;;;;;;;;;;;;;16.93;63.05;95513.94;4516372;26;19964;-61
2024/04/13 05:01:10;;;;;;;;;;;;;;;17.04;62.89;95515.34;4523444;26;20001;-60
2024/04/13 05:03:12;;;;;;;;;;;;;;;17.15;62.06;95520.22;4512105;26;19935;-61
2024/04/13 05:05:15;;;;;;;;;;;;;;;17.22;61.82;95507.06;4525577;26;19935;-60
2024/04/13 05:07:17;;;;;;;;;;;;;;;17.28;61.95;95516.94;4536516;26;20276;-60
2024/04/13 05:09:18;;;;;;;;;;;;;;;17.28;62.14;95506.34;4524156;26;19940;-60
2024/04/13 05:11:20;;;;;;;;;;;;;;;17.23;61.58;95511.34;4549591;26;20316;-62
2024/04/13 05:13:22;;;;;;;;;;;;;;;17.37;61.60;95516.66;4534541;26;19956;-59
2024/04/13 05:15:24;;;;;;;;;;;;;;;17.47;61.24;95513.75;4523388;26;19960;-60
2024/04/13 05:17:26;;;;;;;;;;;;;;;17.54;60.74;95512.03;4528934;26;19932;-61
2024/04/13 05:19:29;;;;;;;;;;;;;;;17.31;61.46;95512.09;4525049;26;19932;-60
2024/04/13 05:21:31;;;;;;;;;;;;;;;17.06;62.87;95510.69;4533454;26;20231;-59
2024/04/13 05:23:33;;;;;;;;;;;;;;;17.16;62.74;95509.44;4521399;26;20574;-61
2024/04/13 05:25:35;;;;;;;;;;;;;;;17.28;61.96;95511.66;4530121;26;19940;-59
2024/04/13 05:27:38;;;;;;;;;;;;;;;17.45;61.49;95512.31;4511694;26;20312;-61
2024/04/13 05:29:40;;;;;;;;;;;;;;;17.57;61.48;95510.81;4530693;26;19928;-61
2024/04/13 05:31:42;;;;;;;;;;;;;;;17.72;60.87;95513.47;4528516;26;20001;-60
2024/04/13 05:33:44;;;;;;;;;;;;;;;17.87;60.32;95505.56;4512721;26;20115;-58
2024/04/13 05:35:47;;;;;;;;;;;;;;;18.04;60.02;95503.53;4522932;26;20406;-63
2024/04/13 05:37:49;;;;;;;;;;;;;;;18.17;59.44;95508.97;4534294;26;19928;-60
2024/04/13 05:39:51;;;;;;;;;;;;;;;18.10;59.30;95513.41;4527074;26;20685;-59
2024/04/13 05:41:53;;;;;;;;;;;;;;;18.12;59.33;95514.03;4534252;26;20346;-60
2024/04/13 05:43:54;;;;;;;;;;;;;;;18.19;59.23;95514.91;4533123;26;20007;-60
2024/04/13 05:45:57;;;;;;;;;;;;;;;18.20;58.86;95517.41;4529813;26;22302;-61
2024/04/13 05:47:58;;;;;;;;;;;;;;;18.20;58.99;95516.59;4507646;26;19996;-62
2024/04/13 05:50:00;;;;;;;;;;;;;;;18.20;58.83;95516.59;4523015;26;20010;-63
2024/04/13 05:52:03;;;;;;;;;;;;;;;18.27;58.34;95516.66;4532207;26;20286;-62
2024/04/13 05:54:05;;;;;;;;;;;;;;;18.23;58.81;95518.03;4527829;26;20378;-61
2024/04/13 05:56:08;;;;;;;;;;;;;;;18.14;59.02;95517.31;4520812;26;20637;-60
2024/04/13 05:58:10;;;;;;;;;;;;;;;17.89;59.88;95522.09;4519889;26;19956;-61
2024/04/13 06:00:14;;;;;;;;;;;;;;;17.98;59.66;95524.47;4526494;26;19959;-61
2024/04/13 06:02:16;;;;;;;;;;;;;;;17.42;61.38;95528.53;4530811;26;19928;-61
2024/04/13 06:04:18;;;;;;;;;;;;;;;17.29;61.94;95526.50;4530246;26;20287;-61
2024/04/13 06:06:19;;;;;;;;;;;;;;;17.48;61.74;95520.69;4529059;26;19980;-59
2024/04/13 06:08:21;;;;;;;;;;;;;;;17.47;61.26;95531.50;4532391;26;20006;-61
2024/04/13 06:10:23;;;;;;;;;;;;;;;17.55;61.73;95524.28;4513023;26;20368;-60
2024/04/13 06:12:25;;;;;;;;;;;;;;;17.60;61.38;95529.84;4530469;26;20009;-61
2024/04/13 06:14:27;;;;;;;;;;;;;;;17.72;60.85;95526.72;4519694;26;19935;-61
2024/04/13 06:16:29;;;;;;;;;;;;;;;17.75;60.92;95526.38;4517482;26;20087;-60
2024/04/13 06:18:30;;;;;;;;;;;;;;;17.77;60.61;95519.06;4531106;26;20609;-62
2024/04/13 06:20:32;;;;;;;;;;;;;;;17.84;60.23;95527.13;4527795;26;19936;-62
2024/04/13 06:22:35;;;;;;;;;;;;;;;17.93;60.50;95528.69;4532954;26;20011;-59
2024/04/13 06:24:36;;;;;;;;;;;;;;;18.18;59.85;95530.00;4517200;26;20353;-60
2024/04/13 06:26:38;;;;;;;;;;;;;;;18.33;59.38;95522.03;4528307;26;19928;-60
2024/04/13 06:28:40;;;;;;;;;;;;;;;18.41;59.27;95524.56;4511424;26;19936;-62
2024/04/13 06:30:42;;;;;;;;;;;;;;;18.54;59.05;95529.19;4527772;26;20230;-61
2024/04/13 06:32:47;;;;;;;;;;;;;;;18.70;57.88;95532.63;4531753;26;19928;-61
2024/04/13 06:34:49;;;;;;;;;;;;;;;18.54;58.08;95531.84;4515791;26;19928;-62
2024/04/13 06:36:51;;;;;;;;;;;;;;;18.49;58.19;95533.41;4529101;26;19940;-62
2024/04/13 06:38:53;;;;;;;;;;;;;;;18.61;57.75;95532.75;4533575;26;20043;-60
2024/04/13 06:40:55;;;;;;;;;;;;;;;18.37;58.23;95525.13;4531987;26;19936;-61
2024/04/13 06:42:57;;;;;;;;;;;;;;;18.21;58.67;95534.13;4536483;26;19927;-62
2024/04/13 06:45:00;;;;;;;;;;;;;;;18.07;59.45;95542.91;4533706;26;20357;-59
2024/04/13 06:47:02;;;;;;;;;;;;;;;17.70;60.00;95528.75;4530539;26;19935;-61
2024/04/13 06:49:04;;;;;;;;;;;;;;;17.55;60.79;95532.22;4528057;26;19936;-61
2024/04/13 06:51:05;;;;;;;;;;;;;;;17.91;59.36;95528.84;4532940;26;20300;-62
2024/04/13 06:53:08;;;;;;;;;;;;;;;18.09;58.82;95519.69;4531684;26;19977;-60
2024/04/13 06:55:10;;;;;;;;;;;;;;;17.68;59.67;95538.69;4520052;26;20006;-61
2024/04/13 06:57:12;;;;;;;;;;;;;;;17.52;59.91;95531.75;4528831;26;19944;-63
2024/04/13 06:59:16;;;;;;;;;;;;;;;17.22;61.00;95531.72;4514288;26;20032;-59
2024/04/13 07:01:17;;;;;;;;;;;;;;;17.18;61.38;95533.88;4514869;26;20284;-61
2024/04/13 07:03:20;;;;;;;;;;;;;;;17.12;61.82;95526.69;4525489;26;20366;-62
2024/04/13 07:05:23;;;;;;;;;;;;;;;17.04;61.96;95528.59;4533149;26;19936;-61
2024/04/13 07:07:24;;;;;;;;;;;;;;;16.90;62.38;95535.47;4521350;26;20113;-62
2024/04/13 07:09:26;;;;;;;;;;;;;;;16.92;63.15;95528.16;4531058;26;20475;-61
2024/04/13 07:11:30;;;;;;;;;;;;;;;17.12;62.59;95521.41;4526365;26;20513;-62
2024/04/13 07:13:33;;;;;;;;;;;;;;;17.32;61.97;95527.00;4522653;26;19946;-62
2024/04/13 07:15:35;;;;;;;;;;;;;;;17.45;61.32;95523.72;4532943;26;19935;-61
2024/04/13 07:17:37;;;;;;;;;;;;;;;17.61;60.80;95520.06;4532117;26;20364;-60
2024/04/13 07:19:39;;;;;;;;;;;;;;;17.78;60.12;95520.69;4534807;26;19928;-60
2024/04/13 07:21:41;;;;;;;;;;;;;;;18.05;59.68;95513.09;4529280;26;19936;-62
2024/04/13 07:23:43;;;;;;;;;;;;;;;18.44;57.50;95514.59;4516176;26;19939;-62
2024/04/13 07:25:45;;;;;;;;;;;;;;;18.65;56.92;95506.66;4524551;26;19940;-63
2024/04/13 07:27:47;;;;;;;;;;;;;;;18.50;57.01;95504.06;4514077;26;20228;-61
2024/04/13 07:29:51;;;;;;;;;;;;;;;18.60;57.18;95515.16;4533968;26;19939;-59
2024/04/13 07:31:52;;;;;;;;;;;;;;;18.37;57.41;95510.03;4519935;26;19928;-63
2024/04/13 07:33:54;;;;;;;;;;;;;;;18.70;57.19;95509.56;4513875;26;19932;-60
2024/04/13 07:35:56;;;;;;;;;;;;;;;19.02;56.01;95507.41;4517669;26;20335;-61
2024/04/13 07:37:58;;;;;;;;;;;;;;;18.96;56.02;95505.53;4535112;26;19932;-59
2024/04/13 07:40:00;;;;;;;;;;;;;;;19.13;55.74;95506.88;4519182;26;19946;-60
2024/04/13 07:42:02;;;;;;;;;;;;;;;18.96;56.09;95510.84;4528850;26;20263;-61
2024/04/13 07:44:04;;;;;;;;;;;;;;;18.74;55.65;95513.47;4526476;26;20556;-62
2024/04/13 07:46:06;;;;;;;;;;;;;;;18.59;56.54;95497.59;4534406;26;19940;-62
2024/04/13 07:48:08;;;;;;;;;;;;;;;18.55;56.45;95503.47;4529944;26;19928;-62
2024/04/13 07:50:10;;;;;;;;;;;;;;;18.55;55.83;95492.88;4540741;26;20235;-65
2024/04/13 07:52:12;;;;;;;;;;;;;;;18.67;56.07;95491.38;4513642;26;19944;-63
2024/04/13 07:54:14;;;;;;;;;;;;;;;18.66;56.14;95497.66;4526805;26;20497;-62
2024/04/13 07:56:16;;;;;;;;;;;;;;;18.62;56.40;95493.75;4534305;26;19952;-63
2024/04/13 07:58:17;;;;;;;;;;;;;;;18.87;54.83;95488.91;4516001;26;20846;-61
2024/04/13 08:00:20;;;;;;;;;;;;;;;19.05;54.63;95485.78;4533446;26;20370;-63
2024/04/13 08:02:22;;;;;;;;;;;;;;;19.16;54.42;95490.56;4532621;26;19928;-61
2024/04/13 08:04:23;;;;;;;;;;;;;;;19.15;53.66;95491.59;4529357;26;19985;-61
2024/04/13 08:06:25;;;;;;;;;;;;;;;19.24;54.07;95492.25;4527181;26;20004;-62
2024/04/13 08:08:27;;;;;;;;;;;;;;;19.51;53.19;95481.78;4532425;26;20019;-63
2024/04/13 08:10:29;;;;;;;;;;;;;;;19.41;52.04;95493.59;4521619;26;20320;-59
2024/04/13 08:12:31;;;;;;;;;;;;;;;19.47;51.79;95493.81;4520887;26;19932;-61
2024/04/13 08:14:33;;;;;;;;;;;;;;;19.75;51.43;95489.34;4519510;26;19928;-64
2024/04/13 08:16:34;;;;;;;;;;;;;;;20.13;50.99;95485.41;4532951;26;19955;-59
2024/04/13 08:18:36;;;;;;;;;;;;;;;20.11;50.53;95493.59;4534839;26;20321;-61
2024/04/13 08:20:39;;;;;;;;;;;;;;;20.02;51.11;95482.28;4519757;26;20684;-60
2024/04/13 08:22:40;;;;;;;;;;;;;;;20.14;50.22;95487.88;4524928;26;19964;-62
2024/04/13 08:24:43;;;;;;;;;;;;;;;19.89;50.53;95495.53;4528843;26;19980;-61
2024/04/13 08:26:45;;;;;;;;;;;;;;;19.93;50.76;95488.81;4520626;26;19927;-63
2024/04/13 08:28:47;;;;;;;;;;;;;;;20.16;50.00;95482.38;4529389;26;19931;-61
2024/04/13 08:30:49;;;;;;;;;;;;;;;20.23;49.46;95485.84;4528979;26;19936;-61
2024/04/13 08:32:51;;;;;;;;;;;;;;;19.99;50.03;95480.03;4527610;26;19958;-62
2024/04/13 08:34:53;;;;;;;;;;;;;;;20.14;49.75;95476.41;4526774;26;19974;-62
2024/04/13 08:36:54;;;;;;;;;;;;;;;20.36;48.75;95469.09;4524451;26;19932;-61
2024/04/13 08:38:56;;;;;;;;;;;;;;;20.69;47.78;95463.03;4531904;26;20016;-62
2024/04/13 08:40:59;;;;;;;;;;;;;;;20.46;48.10;95485.50;4530510;26;19928;-60
2024/04/13 08:43:02;;;;;;;;;;;;;;;20.36;48.43;95459.28;4533474;26;20001;-60
2024/04/13 08:45:10;;;;;;;;;;;;;;;20.63;47.55;95454.88;4514134;26;19937;-62
2024/04/13 08:47:12;;;;;;;;;;;;;;;20.83;47.05;95456.72;4528235;26;19928;-61
2024/04/13 08:49:14;;;;;;;;;;;;;;;20.96;46.95;95448.72;4521033;26;19935;-62
2024/04/13 08:51:17;;;;;;;;;;;;;;;20.64;47.16;95453.00;4532924;26;19936;-61
2024/04/13 08:53:19;;;;;;;;;;;;;;;20.72;47.18;95446.69;4531674;26;19936;-61
2024/04/13 08:55:21;;;;;;;;;;;;;;;20.86;46.43;95443.81;4528224;26;19940;-62
2024/04/13 08:57:24;;;;;;;;;;;;;;;20.99;46.78;95447.50;4532794;26;19935;-62
2024/04/13 08:59:26;;;;;;;;;;;;;;;21.02;46.13;95450.56;4534908;26;19928;-61
2024/04/13 09:01:30;;;;;;;;;;;;;;;20.98;45.28;95441.34;4537933;26;19937;-61
2024/04/13 09:03:32;;;;;;;;;;;;;;;21.29;45.32;95442.53;4530976;26;20359;-62
2024/04/13 09:05:34;;;;;;;;;;;;;;;21.31;44.34;95443.16;4531995;26;19935;-62
2024/04/13 09:07:36;;;;;;;;;;;;;;;20.84;44.44;95450.34;4532532;26;19932;-62
2024/04/13 09:09:38;;;;;;;;;;;;;;;20.93;44.53;95450.97;4535311;26;19927;-62
2024/04/13 09:11:39;;;;;;;;;;;;;;;20.96;43.78;95446.06;4514384;26;19938;-62
2024/04/13 09:13:43;;;;;;;;;;;;;;;21.19;42.58;95455.50;4534557;26;20053;-63
2024/04/13 09:15:44;;;;;;;;;;;;;;;21.53;42.63;95443.78;4533206;26;19932;-62
2024/04/13 09:17:47;;;;;;;;;;;;;;;21.69;41.91;95434.47;4533151;26;20030;-61
2024/04/13 09:19:49;;;;;;;;;;;;;;;21.96;42.31;95437.88;4534618;26;20370;-62
2024/04/13 09:21:51;;;;;;;;;;;;;;;21.99;42.03;95442.78;4526435;26;19943;-59
2024/04/13 09:23:53;;;;;;;;;;;;;;;21.48;43.38;95443.56;4526047;26;19940;-62
2024/04/13 09:26:01;;;;;;;;;;;;;;;21.31;43.04;95432.50;4529316;26;20013;-63
2024/04/13 09:28:03;;;;;;;;;;;;;;;21.70;42.72;95432.63;4526833;26;19956;-59
2024/04/13 09:30:08;;;;;;;;;;;;;;;22.13;41.94;95432.03;4533576;26;20364;-60
2024/04/13 09:32:20;;;;;;;;;;;;;;;22.29;41.56;95423.56;4513477;26;20076;-61
2024/04/13 09:34:22;;;;;;;;;;;;;;;22.21;40.72;95434.47;4521253;26;19935;-62
2024/04/13 09:36:24;;;;;;;;;;;;;;;22.41;40.57;95426.38;4528655;26;19939;-60
2024/04/13 09:38:26;;;;;;;;;;;;;;;22.55;39.88;95424.44;4522084;26;20019;-61
2024/04/13 09:40:31;;;;;;;;;;;;;;;22.73;39.54;95424.50;4521697;26;19972;-59
2024/04/13 09:42:33;;;;;;;;;;;;;;;23.07;39.26;95423.22;4523355;26;19935;-61
2024/04/13 09:44:35;;;;;;;;;;;;;;;23.22;38.37;95419.41;4513708;26;19929;-61
2024/04/13 09:46:36;;;;;;;;;;;;;;;23.45;37.85;95416.91;4533073;26;19928;-62
2024/04/13 09:48:40;;;;;;;;;;;;;;;23.08;37.79;95416.00;4535185;26;20287;-61
2024/04/13 09:50:42;;;;;;;;;;;;;;;22.67;38.63;95417.34;4534691;26;19963;-60
2024/04/13 09:52:43;;;;;;;;;;;;;;;22.60;39.68;95414.72;4532372;26;20442;-62
2024/04/13 09:54:45;;;;;;;;;;;;;;;22.89;38.68;95413.28;4502509;26;20414;-61
2024/04/13 09:56:47;;;;;;;;;;;;;;;23.12;37.44;95406.53;4531630;26;20423;-63
2024/04/13 09:58:49;;;;;;;;;;;;;;;23.23;37.81;95405.81;4533144;26;20101;-61
2024/04/13 10:00:51;;;;;;;;;;;;;;;23.46;37.83;95407.00;4524487;26;20531;-63
2024/04/13 10:02:55;;;;;;;;;;;;;;;23.63;37.89;95402.69;4517019;26;20165;-60
2024/04/13 10:04:57;;;;;;;;;;;;;;;23.70;38.05;95406.13;4531421;26;20773;-62
2024/04/13 10:06:59;;;;;;;;;;;;;;;23.87;37.44;95409.03;4530072;26;20352;-60
2024/04/13 10:09:04;;;;;;;;;;;;;;;22.84;37.98;95402.44;4529442;26;19928;-62
2024/04/13 10:11:05;;;;;;;;;;;;;;;22.87;38.66;95401.19;4532269;26;20014;-60
2024/04/13 10:13:08;;;;;;;;;;;;;;;22.88;38.51;95402.81;4524880;26;20020;-59
2024/04/13 10:15:10;;;;;;;;;;;;;;;23.03;38.60;95403.31;4547231;26;19936;-63
2024/04/13 10:17:12;;;;;;;;;;;;;;;23.19;38.13;95401.94;4511830;26;19928;-60
2024/04/13 10:19:17;;;;;;;;;;;;;;;23.41;37.27;95404.19;4520795;26;19928;-61
2024/04/13 10:21:22;;;;;;;;;;;;;;;23.45;37.63;95410.75;4550664;26;20248;-61
2024/04/13 10:23:24;;;;;;;;;;;;;;;23.37;38.01;95409.16;4521698;26;20000;-61
2024/04/13 10:25:27;;;;;;;;;;;;;;;23.45;37.77;95400.84;4538526;26;19935;-62
2024/04/13 10:27:30;;;;;;;;;;;;;;;23.11;37.92;95396.88;4537416;26;19936;-62
2024/04/13 10:29:40;;;;;;;;;;;;;;;23.07;38.22;95385.81;4530797;26;19928;-62
2024/04/13 10:31:42;;;;;;;;;;;;;;;23.25;38.21;95390.38;4532344;26;19945;-61
2024/04/13 10:33:51;;;;;;;;;;;;;;;23.28;37.90;95384.56;4532780;26;19932;-61
2024/04/13 10:35:56;;;;;;;;;;;;;;;22.69;38.63;95383.22;4532095;26;20281;-63
2024/04/13 10:37:58;;;;;;;;;;;;;;;22.86;38.85;95370.97;4533999;26;19997;-58